sensor_id;sensor_type;location;lat;lon;timestamp;temperature;humidity
22319;DHT22;11327;52.334;9.506;2023-03-13T00:02:00;9.30;99.90
22319;DHT22;11327;52.334;9.506;2023-03-13T00:05:21;9.20;99.90
22319;DHT22;11327;52.334;9.506;2023-03-13T00:08:42;9.20;99.90
22319;DHT22;11327;52.334;9.506;2023-03-13T00:12:04;9.30;99.90
22319;DHT22;11327;52.334;9.506;2023-03-13T00:15:29;9.20;99.90
22319;DHT22;11327;52.334;9.506;2023-03-13T00:18:50;9.30;99.90
22319;DHT22;11327;52.334;9.506;2023-03-13T00:22:11;9.30;99.90
22319;DHT22;11327;52.334;9.506;2023-03-13T00:25:31;9.30;99.90
22319;DHT22;11327;52.334;9.506;2023-03-13T00:28:53;9.40;99.90
22319;DHT22;11327;52.334;9.506;2023-03-13T00:32:13;9.40;99.90
22319;DHT22;11327;52.334;9.506;2023-03-13T00:35:34;9.30;99.90
22319;DHT22;11327;52.334;9.506;2023-03-13T00:38:55;9.40;99.90
22319;DHT22;11327;52.334;9.506;2023-03-13T00:42:16;9.40;99.90
22319;DHT22;11327;52.334;9.506;2023-03-13T00:45:37;9.30;99.90
22319;DHT22;11327;52.334;9.506;2023-03-13T00:48:57;9.40;99.90
22319;DHT22;11327;52.334;9.506;2023-03-13T00:52:18;9.40;99.90
22319;DHT22;11327;52.334;9.506;2023-03-13T00:55:39;9.40;99.90
22319;DHT22;11327;52.334;9.506;2023-03-13T00:59:01;9.40;99.90
22319;DHT22;11327;52.334;9.506;2023-03-13T01:02:22;9.40;99.90
22319;DHT22;11327;52.334;9.506;2023-03-13T01:05:43;9.30;99.90
22319;DHT22;11327;52.334;9.506;2023-03-13T01:09:05;9.30;99.90
22319;DHT22;11327;52.334;9.506;2023-03-13T01:12:26;9.40;99.90
22319;DHT22;11327;52.334;9.506;2023-03-13T01:15:47;9.40;99.90
22319;DHT22;11327;52.334;9.506;2023-03-13T01:19:10;9.50;99.90
22319;DHT22;11327;52.334;9.506;2023-03-13T01:22:31;9.40;99.90
22319;DHT22;11327;52.334;9.506;2023-03-13T01:25:54;9.50;99.90
22319;DHT22;11327;52.334;9.506;2023-03-13T01:29:15;9.40;99.90
22319;DHT22;11327;52.334;9.506;2023-03-13T01:32:36;9.50;99.90
22319;DHT22;11327;52.334;9.506;2023-03-13T01:36:00;9.40;99.90
22319;DHT22;11327;52.334;9.506;2023-03-13T01:39:21;9.40;99.90
22319;DHT22;11327;52.334;9.506;2023-03-13T01:49:39;9.30;99.90
22319;DHT22;11327;52.334;9.506;2023-03-13T01:52:59;9.30;99.90
22319;DHT22;11327;52.334;9.506;2023-03-13T02:00:19;9.10;99.90
22319;DHT22;11327;52.334;9.506;2023-03-13T02:03:39;9.00;99.90
22319;DHT22;11327;52.334;9.506;2023-03-13T02:07:04;9.00;99.90
22319;DHT22;11327;52.334;9.506;2023-03-13T02:10:25;9.00;99.90
22319;DHT22;11327;52.334;9.506;2023-03-13T02:13:49;8.80;99.90
22319;DHT22;11327;52.334;9.506;2023-03-13T02:17:12;9.00;99.90
22319;DHT22;11327;52.334;9.506;2023-03-13T02:20:33;9.00;99.90
22319;DHT22;11327;52.334;9.506;2023-03-13T02:23:58;9.00;99.90
22319;DHT22;11327;52.334;9.506;2023-03-13T02:27:18;9.00;99.90
22319;DHT22;11327;52.334;9.506;2023-03-13T02:30:41;9.10;99.90
22319;DHT22;11327;52.334;9.506;2023-03-13T02:34:02;9.20;99.90
22319;DHT22;11327;52.334;9.506;2023-03-13T02:37:26;9.10;99.90
22319;DHT22;11327;52.334;9.506;2023-03-13T02:40:49;9.20;99.90
22319;DHT22;11327;52.334;9.506;2023-03-13T02:44:11;9.20;99.90
22319;DHT22;11327;52.334;9.506;2023-03-13T02:47:32;9.10;99.90
22319;DHT22;11327;52.334;9.506;2023-03-13T02:50:53;9.10;99.90
22319;DHT22;11327;52.334;9.506;2023-03-13T02:54:20;9.10;99.90
22319;DHT22;11327;52.334;9.506;2023-03-13T02:57:41;9.10;99.90
22319;DHT22;11327;52.334;9.506;2023-03-13T03:01:02;9.10;99.90
22319;DHT22;11327;52.334;9.506;2023-03-13T03:04:25;9.10;99.90
22319;DHT22;11327;52.334;9.506;2023-03-13T03:07:46;9.00;99.90
22319;DHT22;11327;52.334;9.506;2023-03-13T03:11:07;8.90;99.90
22319;DHT22;11327;52.334;9.506;2023-03-13T03:14:28;8.80;99.90
22319;DHT22;11327;52.334;9.506;2023-03-13T03:17:49;8.80;99.90
22319;DHT22;11327;52.334;9.506;2023-03-13T03:21:09;8.70;99.90
22319;DHT22;11327;52.334;9.506;2023-03-13T03:24:30;8.70;99.90
22319;DHT22;11327;52.334;9.506;2023-03-13T03:27:51;8.70;99.90
22319;DHT22;11327;52.334;9.506;2023-03-13T03:31:13;8.70;99.90
22319;DHT22;11327;52.334;9.506;2023-03-13T03:34:34;8.70;99.90
22319;DHT22;11327;52.334;9.506;2023-03-13T03:37:55;8.80;99.90
22319;DHT22;11327;52.334;9.506;2023-03-13T03:41:16;8.80;99.90
22319;DHT22;11327;52.334;9.506;2023-03-13T03:44:37;8.80;99.90
22319;DHT22;11327;52.334;9.506;2023-03-13T03:47:57;8.90;99.90
22319;DHT22;11327;52.334;9.506;2023-03-13T03:51:20;8.80;99.90
22319;DHT22;11327;52.334;9.506;2023-03-13T03:54:41;8.70;99.90
22319;DHT22;11327;52.334;9.506;2023-03-13T03:58:01;8.70;99.90
22319;DHT22;11327;52.334;9.506;2023-03-13T04:01:22;8.70;99.90
22319;DHT22;11327;52.334;9.506;2023-03-13T04:04:43;8.60;99.90
22319;DHT22;11327;52.334;9.506;2023-03-13T04:08:04;8.60;99.90
22319;DHT22;11327;52.334;9.506;2023-03-13T04:11:25;8.60;99.90
22319;DHT22;11327;52.334;9.506;2023-03-13T04:14:45;8.50;99.90
22319;DHT22;11327;52.334;9.506;2023-03-13T04:18:06;8.50;99.90
22319;DHT22;11327;52.334;9.506;2023-03-13T04:21:27;8.50;99.90
22319;DHT22;11327;52.334;9.506;2023-03-13T04:24:48;8.40;99.90
22319;DHT22;11327;52.334;9.506;2023-03-13T04:28:09;8.30;99.90
22319;DHT22;11327;52.334;9.506;2023-03-13T04:31:29;8.30;99.90
22319;DHT22;11327;52.334;9.506;2023-03-13T04:34:50;8.30;99.90
22319;DHT22;11327;52.334;9.506;2023-03-13T04:38:11;8.30;99.90
22319;DHT22;11327;52.334;9.506;2023-03-13T04:41:31;8.30;99.90
22319;DHT22;11327;52.334;9.506;2023-03-13T04:44:52;8.40;99.90
22319;DHT22;11327;52.334;9.506;2023-03-13T04:48:13;8.40;99.90
22319;DHT22;11327;52.334;9.506;2023-03-13T04:51:34;8.40;99.90
22319;DHT22;11327;52.334;9.506;2023-03-13T04:54:54;8.50;99.90
22319;DHT22;11327;52.334;9.506;2023-03-13T04:58:15;8.50;99.90
22319;DHT22;11327;52.334;9.506;2023-03-13T05:01:36;8.50;99.90
22319;DHT22;11327;52.334;9.506;2023-03-13T05:04:56;8.50;99.90
22319;DHT22;11327;52.334;9.506;2023-03-13T05:08:17;8.50;99.90
22319;DHT22;11327;52.334;9.506;2023-03-13T05:11:38;8.60;99.90
22319;DHT22;11327;52.334;9.506;2023-03-13T05:14:59;8.50;99.90
22319;DHT22;11327;52.334;9.506;2023-03-13T05:18:20;8.50;99.90
22319;DHT22;11327;52.334;9.506;2023-03-13T05:21:41;8.60;99.90
22319;DHT22;11327;52.334;9.506;2023-03-13T05:25:02;8.80;99.90
22319;DHT22;11327;52.334;9.506;2023-03-13T05:28:24;8.60;99.90
22319;DHT22;11327;52.334;9.506;2023-03-13T05:31:45;8.70;99.90
22319;DHT22;11327;52.334;9.506;2023-03-13T05:35:06;8.80;99.90
22319;DHT22;11327;52.334;9.506;2023-03-13T05:38:27;8.80;99.90
22319;DHT22;11327;52.334;9.506;2023-03-13T05:41:48;8.80;99.90
22319;DHT22;11327;52.334;9.506;2023-03-13T05:45:09;8.80;99.90
22319;DHT22;11327;52.334;9.506;2023-03-13T05:48:30;8.80;99.90
22319;DHT22;11327;52.334;9.506;2023-03-13T05:51:51;8.90;99.90
22319;DHT22;11327;52.334;9.506;2023-03-13T05:55:12;8.90;99.90
22319;DHT22;11327;52.334;9.506;2023-03-13T05:58:32;9.00;99.90
22319;DHT22;11327;52.334;9.506;2023-03-13T06:01:53;9.10;99.90
22319;DHT22;11327;52.334;9.506;2023-03-13T06:05:14;9.00;99.90
22319;DHT22;11327;52.334;9.506;2023-03-13T06:08:35;9.10;99.90
22319;DHT22;11327;52.334;9.506;2023-03-13T06:11:55;9.10;99.90
22319;DHT22;11327;52.334;9.506;2023-03-13T06:15:16;9.10;99.90
22319;DHT22;11327;52.334;9.506;2023-03-13T06:18:37;9.20;99.90
22319;DHT22;11327;52.334;9.506;2023-03-13T06:21:58;9.20;99.90
22319;DHT22;11327;52.334;9.506;2023-03-13T06:25:18;9.20;99.90
22319;DHT22;11327;52.334;9.506;2023-03-13T06:28:39;9.30;99.90
22319;DHT22;11327;52.334;9.506;2023-03-13T06:32:00;9.40;99.90
22319;DHT22;11327;52.334;9.506;2023-03-13T06:35:21;9.50;99.90
22319;DHT22;11327;52.334;9.506;2023-03-13T06:38:41;9.60;99.90
22319;DHT22;11327;52.334;9.506;2023-03-13T06:42:02;9.50;99.90
22319;DHT22;11327;52.334;9.506;2023-03-13T06:45:23;9.70;99.90
22319;DHT22;11327;52.334;9.506;2023-03-13T06:48:44;9.70;99.90
22319;DHT22;11327;52.334;9.506;2023-03-13T06:52:05;9.80;99.90
22319;DHT22;11327;52.334;9.506;2023-03-13T06:55:26;9.90;99.90
22319;DHT22;11327;52.334;9.506;2023-03-13T06:58:47;9.90;99.90
22319;DHT22;11327;52.334;9.506;2023-03-13T07:02:10;10.00;99.90
22319;DHT22;11327;52.334;9.506;2023-03-13T07:05:31;10.00;99.90
22319;DHT22;11327;52.334;9.506;2023-03-13T07:08:52;10.10;99.90
22319;DHT22;11327;52.334;9.506;2023-03-13T07:12:13;10.20;99.90
22319;DHT22;11327;52.334;9.506;2023-03-13T07:15:33;10.40;99.90
22319;DHT22;11327;52.334;9.506;2023-03-13T07:18:54;10.50;99.90
22319;DHT22;11327;52.334;9.506;2023-03-13T07:22:15;10.60;99.90
22319;DHT22;11327;52.334;9.506;2023-03-13T07:25:36;10.70;99.90
22319;DHT22;11327;52.334;9.506;2023-03-13T07:28:56;10.90;99.90
22319;DHT22;11327;52.334;9.506;2023-03-13T07:32:17;11.00;99.90
22319;DHT22;11327;52.334;9.506;2023-03-13T07:35:38;11.10;99.90
22319;DHT22;11327;52.334;9.506;2023-03-13T07:38:59;11.20;99.90
22319;DHT22;11327;52.334;9.506;2023-03-13T07:42:19;11.20;99.90
22319;DHT22;11327;52.334;9.506;2023-03-13T07:45:55;11.30;99.90
22319;DHT22;11327;52.334;9.506;2023-03-13T07:49:16;11.40;99.90
22319;DHT22;11327;52.334;9.506;2023-03-13T07:52:36;11.40;99.90
22319;DHT22;11327;52.334;9.506;2023-03-13T07:56:00;11.50;99.90
22319;DHT22;11327;52.334;9.506;2023-03-13T07:59:21;11.60;99.90
22319;DHT22;11327;52.334;9.506;2023-03-13T08:02:42;11.70;99.90
22319;DHT22;11327;52.334;9.506;2023-03-13T08:06:06;11.80;99.90
22319;DHT22;11327;52.334;9.506;2023-03-13T08:09:27;11.80;99.90
22319;DHT22;11327;52.334;9.506;2023-03-13T08:12:47;11.90;99.90
22319;DHT22;11327;52.334;9.506;2023-03-13T08:16:11;11.70;99.90
22319;DHT22;11327;52.334;9.506;2023-03-13T08:19:32;11.90;99.90
22319;DHT22;11327;52.334;9.506;2023-03-13T08:22:54;11.90;99.90
22319;DHT22;11327;52.334;9.506;2023-03-13T08:26:18;12.00;99.90
22319;DHT22;11327;52.334;9.506;2023-03-13T08:29:38;12.10;99.90
22319;DHT22;11327;52.334;9.506;2023-03-13T08:32:59;12.20;99.90
22319;DHT22;11327;52.334;9.506;2023-03-13T08:36:23;12.20;99.90
22319;DHT22;11327;52.334;9.506;2023-03-13T08:39:44;12.30;99.90
22319;DHT22;11327;52.334;9.506;2023-03-13T08:43:05;12.30;99.90
22319;DHT22;11327;52.334;9.506;2023-03-13T08:46:28;12.30;99.90
22319;DHT22;11327;52.334;9.506;2023-03-13T08:49:49;12.20;99.90
22319;DHT22;11327;52.334;9.506;2023-03-13T08:53:10;12.30;99.90
22319;DHT22;11327;52.334;9.506;2023-03-13T08:56:31;12.40;99.90
22319;DHT22;11327;52.334;9.506;2023-03-13T08:59:54;12.40;99.90
22319;DHT22;11327;52.334;9.506;2023-03-13T09:03:14;12.50;99.90
22319;DHT22;11327;52.334;9.506;2023-03-13T09:06:37;12.60;99.90
22319;DHT22;11327;52.334;9.506;2023-03-13T09:09:58;12.70;99.90
22319;DHT22;11327;52.334;9.506;2023-03-13T09:13:19;12.70;99.90
22319;DHT22;11327;52.334;9.506;2023-03-13T09:16:40;12.80;99.90
22319;DHT22;11327;52.334;9.506;2023-03-13T09:20:00;12.80;99.90
22319;DHT22;11327;52.334;9.506;2023-03-13T09:23:22;12.90;99.90
22319;DHT22;11327;52.334;9.506;2023-03-13T09:26:43;13.00;99.90
22319;DHT22;11327;52.334;9.506;2023-03-13T09:30:05;13.00;99.90
22319;DHT22;11327;52.334;9.506;2023-03-13T09:33:26;13.10;99.90
22319;DHT22;11327;52.334;9.506;2023-03-13T09:36:47;13.10;99.90
22319;DHT22;11327;52.334;9.506;2023-03-13T09:40:12;13.10;99.90
22319;DHT22;11327;52.334;9.506;2023-03-13T09:43:39;13.10;99.90
22319;DHT22;11327;52.334;9.506;2023-03-13T09:47:17;13.20;99.90
22319;DHT22;11327;52.334;9.506;2023-03-13T09:50:42;13.20;99.90
22319;DHT22;11327;52.334;9.506;2023-03-13T10:01:32;13.30;99.90
22319;DHT22;11327;52.334;9.506;2023-03-13T10:05:02;13.40;99.90
22319;DHT22;11327;52.334;9.506;2023-03-13T10:08:30;13.30;99.90
22319;DHT22;11327;52.334;9.506;2023-03-13T10:11:55;13.30;99.90
22319;DHT22;11327;52.334;9.506;2023-03-13T10:19:15;13.30;99.90
22319;DHT22;11327;52.334;9.506;2023-03-13T10:22:37;13.20;99.90
22319;DHT22;11327;52.334;9.506;2023-03-13T10:25:59;13.10;99.90
22319;DHT22;11327;52.334;9.506;2023-03-13T10:29:22;13.20;99.90
22319;DHT22;11327;52.334;9.506;2023-03-13T10:32:43;13.20;99.90
22319;DHT22;11327;52.334;9.506;2023-03-13T10:36:07;13.20;99.90
22319;DHT22;11327;52.334;9.506;2023-03-13T10:39:28;13.40;99.90
22319;DHT22;11327;52.334;9.506;2023-03-13T10:43:02;13.60;99.90
22319;DHT22;11327;52.334;9.506;2023-03-13T10:46:25;13.90;99.90
22319;DHT22;11327;52.334;9.506;2023-03-13T10:49:48;14.10;99.90
22319;DHT22;11327;52.334;9.506;2023-03-13T10:53:31;14.40;99.90
22319;DHT22;11327;52.334;9.506;2023-03-13T10:56:45;14.60;99.90
22319;DHT22;11327;52.334;9.506;2023-03-13T11:00:27;14.80;99.90
22319;DHT22;11327;52.334;9.506;2023-03-13T11:03:51;14.80;99.90
22319;DHT22;11327;52.334;9.506;2023-03-13T11:11:00;14.70;99.90
22319;DHT22;11327;52.334;9.506;2023-03-13T11:14:24;14.80;99.90
22319;DHT22;11327;52.334;9.506;2023-03-13T11:17:50;14.90;99.90
22319;DHT22;11327;52.334;9.506;2023-03-13T11:21:20;15.20;99.90
22319;DHT22;11327;52.334;9.506;2023-03-13T11:24:56;15.10;99.90
22319;DHT22;11327;52.334;9.506;2023-03-13T11:32:01;15.30;99.90
22319;DHT22;11327;52.334;9.506;2023-03-13T11:39:25;15.20;99.90
22319;DHT22;11327;52.334;9.506;2023-03-13T11:46:21;15.80;99.90
22319;DHT22;11327;52.334;9.506;2023-03-13T11:53:25;16.10;99.90
22319;DHT22;11327;52.334;9.506;2023-03-13T12:00:28;16.00;99.90
22319;DHT22;11327;52.334;9.506;2023-03-13T12:08:09;16.20;99.90
22319;DHT22;11327;52.334;9.506;2023-03-13T12:11:03;16.30;99.90
22319;DHT22;11327;52.334;9.506;2023-03-13T12:14:35;16.20;99.90
22319;DHT22;11327;52.334;9.506;2023-03-13T12:21:38;16.40;99.90
22319;DHT22;11327;52.334;9.506;2023-03-13T12:25:02;16.40;99.90
22319;DHT22;11327;52.334;9.506;2023-03-13T12:28:42;16.50;99.90
22319;DHT22;11327;52.334;9.506;2023-03-13T12:32:28;16.50;99.90
22319;DHT22;11327;52.334;9.506;2023-03-13T12:35:55;16.50;99.90
22319;DHT22;11327;52.334;9.506;2023-03-13T12:39:32;16.60;99.90
22319;DHT22;11327;52.334;9.506;2023-03-13T12:42:57;16.60;99.90
22319;DHT22;11327;52.334;9.506;2023-03-13T12:50:28;16.80;99.90
22319;DHT22;11327;52.334;9.506;2023-03-13T13:00:48;17.20;99.90
22319;DHT22;11327;52.334;9.506;2023-03-13T13:04:16;17.30;99.90
22319;DHT22;11327;52.334;9.506;2023-03-13T13:07:37;17.30;99.90
22319;DHT22;11327;52.334;9.506;2023-03-13T13:15:19;17.20;99.90
22319;DHT22;11327;52.334;9.506;2023-03-13T13:18:28;17.20;99.90
22319;DHT22;11327;52.334;9.506;2023-03-13T13:25:47;17.30;99.90
22319;DHT22;11327;52.334;9.506;2023-03-13T13:32:39;17.00;99.90
22319;DHT22;11327;52.334;9.506;2023-03-13T13:36:24;17.30;99.90
22319;DHT22;11327;52.334;9.506;2023-03-13T13:39:48;17.30;99.90
22319;DHT22;11327;52.334;9.506;2023-03-13T13:43:19;17.30;99.90
22319;DHT22;11327;52.334;9.506;2023-03-13T13:46:34;17.10;99.90
22319;DHT22;11327;52.334;9.506;2023-03-13T13:49:59;17.20;99.90
22319;DHT22;11327;52.334;9.506;2023-03-13T13:53:29;17.30;99.90
22319;DHT22;11327;52.334;9.506;2023-03-13T13:56:56;17.40;99.90
22319;DHT22;11327;52.334;9.506;2023-03-13T14:00:20;17.40;99.90
22319;DHT22;11327;52.334;9.506;2023-03-13T14:03:41;17.30;99.90
22319;DHT22;11327;52.334;9.506;2023-03-13T14:07:03;17.30;99.90
22319;DHT22;11327;52.334;9.506;2023-03-13T14:10:41;17.20;99.90
22319;DHT22;11327;52.334;9.506;2023-03-13T14:14:16;17.30;99.90
22319;DHT22;11327;52.334;9.506;2023-03-13T14:17:49;17.20;99.90
22319;DHT22;11327;52.334;9.506;2023-03-13T14:21:10;17.20;99.90
22319;DHT22;11327;52.334;9.506;2023-03-13T14:24:34;17.10;99.90
22319;DHT22;11327;52.334;9.506;2023-03-13T14:27:55;17.10;99.90
22319;DHT22;11327;52.334;9.506;2023-03-13T14:31:31;17.00;99.90
22319;DHT22;11327;52.334;9.506;2023-03-13T14:34:52;17.10;99.90
22319;DHT22;11327;52.334;9.506;2023-03-13T14:38:20;17.20;99.90
22319;DHT22;11327;52.334;9.506;2023-03-13T14:41:44;17.30;99.90
22319;DHT22;11327;52.334;9.506;2023-03-13T14:45:21;17.20;99.90
22319;DHT22;11327;52.334;9.506;2023-03-13T14:48:42;17.20;99.90
22319;DHT22;11327;52.334;9.506;2023-03-13T14:52:12;17.30;99.90
22319;DHT22;11327;52.334;9.506;2023-03-13T14:55:30;17.10;99.90
22319;DHT22;11327;52.334;9.506;2023-03-13T14:58:52;17.00;99.90
22319;DHT22;11327;52.334;9.506;2023-03-13T15:02:26;16.90;99.90
22319;DHT22;11327;52.334;9.506;2023-03-13T15:06:06;16.90;99.90
22319;DHT22;11327;52.334;9.506;2023-03-13T15:09:27;16.90;99.90
22319;DHT22;11327;52.334;9.506;2023-03-13T15:12:48;16.80;99.90
22319;DHT22;11327;52.334;9.506;2023-03-13T15:16:15;16.80;99.90
22319;DHT22;11327;52.334;9.506;2023-03-13T15:19:36;16.90;99.90
22319;DHT22;11327;52.334;9.506;2023-03-13T15:22:56;16.80;99.90
22319;DHT22;11327;52.334;9.506;2023-03-13T15:26:17;16.70;99.90
22319;DHT22;11327;52.334;9.506;2023-03-13T15:29:38;16.60;99.90
22319;DHT22;11327;52.334;9.506;2023-03-13T15:32:59;16.60;99.90
22319;DHT22;11327;52.334;9.506;2023-03-13T15:36:19;16.60;99.90
22319;DHT22;11327;52.334;9.506;2023-03-13T15:39:41;16.70;99.90
22319;DHT22;11327;52.334;9.506;2023-03-13T15:43:01;16.70;99.90
22319;DHT22;11327;52.334;9.506;2023-03-13T15:46:24;16.60;99.90
22319;DHT22;11327;52.334;9.506;2023-03-13T15:49:45;16.50;99.90
22319;DHT22;11327;52.334;9.506;2023-03-13T15:53:15;16.50;99.90
22319;DHT22;11327;52.334;9.506;2023-03-13T15:56:37;16.40;99.90
22319;DHT22;11327;52.334;9.506;2023-03-13T15:59:58;16.40;99.90
22319;DHT22;11327;52.334;9.506;2023-03-13T16:03:25;16.40;99.90
22319;DHT22;11327;52.334;9.506;2023-03-13T16:06:44;16.30;99.90
22319;DHT22;11327;52.334;9.506;2023-03-13T16:10:14;16.20;99.90
22319;DHT22;11327;52.334;9.506;2023-03-13T16:13:35;16.20;99.90
22319;DHT22;11327;52.334;9.506;2023-03-13T16:16:55;16.20;99.90
22319;DHT22;11327;52.334;9.506;2023-03-13T16:20:18;16.20;99.90
22319;DHT22;11327;52.334;9.506;2023-03-13T16:23:40;16.00;99.90
22319;DHT22;11327;52.334;9.506;2023-03-13T16:27:01;15.90;99.90
22319;DHT22;11327;52.334;9.506;2023-03-13T16:30:29;15.90;99.90
22319;DHT22;11327;52.334;9.506;2023-03-13T16:33:47;15.80;99.90
22319;DHT22;11327;52.334;9.506;2023-03-13T16:37:16;15.90;99.90
22319;DHT22;11327;52.334;9.506;2023-03-13T16:40:37;16.00;99.90
22319;DHT22;11327;52.334;9.506;2023-03-13T16:43:58;15.90;99.90
22319;DHT22;11327;52.334;9.506;2023-03-13T16:47:26;15.90;99.90
22319;DHT22;11327;52.334;9.506;2023-03-13T16:50:46;15.90;99.90
22319;DHT22;11327;52.334;9.506;2023-03-13T16:54:07;15.80;99.90
22319;DHT22;11327;52.334;9.506;2023-03-13T16:57:30;15.70;99.90
22319;DHT22;11327;52.334;9.506;2023-03-13T17:00:50;15.70;99.90
22319;DHT22;11327;52.334;9.506;2023-03-13T17:04:11;15.80;99.90
22319;DHT22;11327;52.334;9.506;2023-03-13T17:07:32;15.80;99.90
22319;DHT22;11327;52.334;9.506;2023-03-13T17:10:53;15.80;99.90
22319;DHT22;11327;52.334;9.506;2023-03-13T17:14:14;15.60;99.90
22319;DHT22;11327;52.334;9.506;2023-03-13T17:17:34;15.50;99.90
22319;DHT22;11327;52.334;9.506;2023-03-13T17:20:55;15.60;99.90
22319;DHT22;11327;52.334;9.506;2023-03-13T17:24:16;15.50;99.90
22319;DHT22;11327;52.334;9.506;2023-03-13T17:27:38;15.50;99.90
22319;DHT22;11327;52.334;9.506;2023-03-13T17:30:59;15.40;99.90
22319;DHT22;11327;52.334;9.506;2023-03-13T17:34:19;15.40;99.90
22319;DHT22;11327;52.334;9.506;2023-03-13T17:37:40;15.30;99.90
22319;DHT22;11327;52.334;9.506;2023-03-13T17:41:02;15.30;99.90
22319;DHT22;11327;52.334;9.506;2023-03-13T17:44:23;15.20;99.90
22319;DHT22;11327;52.334;9.506;2023-03-13T17:47:44;15.10;99.90
22319;DHT22;11327;52.334;9.506;2023-03-13T17:51:14;15.00;99.90
22319;DHT22;11327;52.334;9.506;2023-03-13T17:54:36;15.00;99.90
22319;DHT22;11327;52.334;9.506;2023-03-13T17:57:56;14.90;99.90
22319;DHT22;11327;52.334;9.506;2023-03-13T18:01:19;14.80;99.90
22319;DHT22;11327;52.334;9.506;2023-03-13T18:04:41;14.70;99.90
22319;DHT22;11327;52.334;9.506;2023-03-13T18:08:02;14.70;99.90
22319;DHT22;11327;52.334;9.506;2023-03-13T18:11:24;14.60;99.90
22319;DHT22;11327;52.334;9.506;2023-03-13T18:14:45;14.60;99.90
22319;DHT22;11327;52.334;9.506;2023-03-13T18:18:10;14.50;99.90
22319;DHT22;11327;52.334;9.506;2023-03-13T18:21:31;14.40;99.90
22319;DHT22;11327;52.334;9.506;2023-03-13T18:24:52;14.30;99.90
22319;DHT22;11327;52.334;9.506;2023-03-13T18:28:12;14.30;99.90
22319;DHT22;11327;52.334;9.506;2023-03-13T18:31:34;14.30;99.90
22319;DHT22;11327;52.334;9.506;2023-03-13T18:34:55;14.20;99.90
22319;DHT22;11327;52.334;9.506;2023-03-13T18:38:16;14.10;99.90
22319;DHT22;11327;52.334;9.506;2023-03-13T18:41:38;14.30;99.90
22319;DHT22;11327;52.334;9.506;2023-03-13T18:44:59;14.10;99.90
22319;DHT22;11327;52.334;9.506;2023-03-13T18:48:20;14.00;99.90
22319;DHT22;11327;52.334;9.506;2023-03-13T18:51:40;13.90;99.90
22319;DHT22;11327;52.334;9.506;2023-03-13T18:55:01;14.00;99.90
22319;DHT22;11327;52.334;9.506;2023-03-13T18:58:22;13.90;99.90
22319;DHT22;11327;52.334;9.506;2023-03-13T19:01:42;14.00;99.90
22319;DHT22;11327;52.334;9.506;2023-03-13T19:05:03;13.90;99.90
22319;DHT22;11327;52.334;9.506;2023-03-13T19:08:24;13.90;99.90
22319;DHT22;11327;52.334;9.506;2023-03-13T19:11:45;13.90;99.90
22319;DHT22;11327;52.334;9.506;2023-03-13T19:15:07;13.80;99.90
22319;DHT22;11327;52.334;9.506;2023-03-13T19:18:27;13.90;99.90
22319;DHT22;11327;52.334;9.506;2023-03-13T19:21:50;13.90;99.90
22319;DHT22;11327;52.334;9.506;2023-03-13T19:25:12;13.80;99.90
22319;DHT22;11327;52.334;9.506;2023-03-13T19:28:35;13.80;99.90
22319;DHT22;11327;52.334;9.506;2023-03-13T19:31:56;13.70;99.90
22319;DHT22;11327;52.334;9.506;2023-03-13T19:35:18;13.70;99.90
22319;DHT22;11327;52.334;9.506;2023-03-13T19:38:42;13.70;99.90
22319;DHT22;11327;52.334;9.506;2023-03-13T19:42:03;13.60;99.90
22319;DHT22;11327;52.334;9.506;2023-03-13T19:45:25;13.50;99.90
22319;DHT22;11327;52.334;9.506;2023-03-13T19:48:47;13.50;99.90
22319;DHT22;11327;52.334;9.506;2023-03-13T19:52:08;13.50;99.90
22319;DHT22;11327;52.334;9.506;2023-03-13T19:55:29;13.50;99.90
22319;DHT22;11327;52.334;9.506;2023-03-13T19:58:52;13.60;99.90
22319;DHT22;11327;52.334;9.506;2023-03-13T20:02:13;13.40;99.90
22319;DHT22;11327;52.334;9.506;2023-03-13T20:05:34;13.50;99.90
22319;DHT22;11327;52.334;9.506;2023-03-13T20:09:02;13.40;99.90
22319;DHT22;11327;52.334;9.506;2023-03-13T20:12:19;13.50;99.90
22319;DHT22;11327;52.334;9.506;2023-03-13T20:15:40;13.40;99.90
22319;DHT22;11327;52.334;9.506;2023-03-13T20:19:01;13.40;99.90
22319;DHT22;11327;52.334;9.506;2023-03-13T20:22:22;13.30;99.90
22319;DHT22;11327;52.334;9.506;2023-03-13T20:25:43;13.30;99.90
22319;DHT22;11327;52.334;9.506;2023-03-13T20:29:03;13.50;99.90
22319;DHT22;11327;52.334;9.506;2023-03-13T20:32:24;13.40;99.90
22319;DHT22;11327;52.334;9.506;2023-03-13T20:35:45;13.40;99.90
22319;DHT22;11327;52.334;9.506;2023-03-13T20:39:05;13.20;99.90
22319;DHT22;11327;52.334;9.506;2023-03-13T20:42:27;13.30;99.90
22319;DHT22;11327;52.334;9.506;2023-03-13T20:45:48;13.30;99.90
22319;DHT22;11327;52.334;9.506;2023-03-13T20:49:09;13.30;99.90
22319;DHT22;11327;52.334;9.506;2023-03-13T20:52:29;13.30;99.90
22319;DHT22;11327;52.334;9.506;2023-03-13T20:55:50;13.30;99.90
22319;DHT22;11327;52.334;9.506;2023-03-13T20:59:11;13.20;99.90
22319;DHT22;11327;52.334;9.506;2023-03-13T21:02:32;13.20;99.90
22319;DHT22;11327;52.334;9.506;2023-03-13T21:05:53;13.30;99.90
22319;DHT22;11327;52.334;9.506;2023-03-13T21:09:14;13.20;99.90
22319;DHT22;11327;52.334;9.506;2023-03-13T21:12:35;13.40;99.90
22319;DHT22;11327;52.334;9.506;2023-03-13T21:16:00;13.30;99.90
22319;DHT22;11327;52.334;9.506;2023-03-13T21:19:21;13.40;99.90
22319;DHT22;11327;52.334;9.506;2023-03-13T21:22:42;13.30;99.90
22319;DHT22;11327;52.334;9.506;2023-03-13T21:26:03;13.30;99.90
22319;DHT22;11327;52.334;9.506;2023-03-13T21:29:23;13.30;99.90
22319;DHT22;11327;52.334;9.506;2023-03-13T21:32:45;13.30;99.90
22319;DHT22;11327;52.334;9.506;2023-03-13T21:36:06;13.20;99.90
22319;DHT22;11327;52.334;9.506;2023-03-13T21:39:27;13.20;99.90
22319;DHT22;11327;52.334;9.506;2023-03-13T21:42:48;13.30;99.90
22319;DHT22;11327;52.334;9.506;2023-03-13T21:46:10;13.20;99.90
22319;DHT22;11327;52.334;9.506;2023-03-13T21:49:31;13.10;99.90
22319;DHT22;11327;52.334;9.506;2023-03-13T21:52:52;13.10;99.90
22319;DHT22;11327;52.334;9.506;2023-03-13T21:56:13;13.10;99.90
22319;DHT22;11327;52.334;9.506;2023-03-13T21:59:35;13.10;99.90
22319;DHT22;11327;52.334;9.506;2023-03-13T22:02:55;13.00;99.90
22319;DHT22;11327;52.334;9.506;2023-03-13T22:06:18;12.90;99.90
22319;DHT22;11327;52.334;9.506;2023-03-13T22:09:39;12.90;99.90
22319;DHT22;11327;52.334;9.506;2023-03-13T22:13:00;12.90;99.90
22319;DHT22;11327;52.334;9.506;2023-03-13T22:16:20;12.90;99.90
22319;DHT22;11327;52.334;9.506;2023-03-13T22:19:44;12.90;99.90
22319;DHT22;11327;52.334;9.506;2023-03-13T22:23:05;12.90;99.90
22319;DHT22;11327;52.334;9.506;2023-03-13T22:26:26;12.90;99.90
22319;DHT22;11327;52.334;9.506;2023-03-13T22:29:47;12.80;99.90
22319;DHT22;11327;52.334;9.506;2023-03-13T22:33:08;12.80;99.90
22319;DHT22;11327;52.334;9.506;2023-03-13T22:36:28;12.70;99.90
22319;DHT22;11327;52.334;9.506;2023-03-13T22:39:49;12.60;99.90